Tiempo atmosférico en la estación meteorológica de Santa Elena, Jaén (742 m.)



Fecha
DESCASC
Temp. máxima en grados centígrados (hora)
DESCASC
Temp. mínima en grados centígrados (hora)
DESCASC
Temp. media en grados centígrados
DESCASC
Racha de viento máxima en m/sg (hora)
DESCASC
Velocidad máxima media en intervalos de 10 minutos(hora)
DESCASC
Precipitaciones diarias en mm
DESCASC
Precipitaciones de 00:00 a 06:00 en mm
DESCASC
Precipitaciones de 06:00 a 12:00 en mm
DESCASC
Precipitaciones de 12:00 a 18:00 en mm
DESCASC
Precipitaciones de 18:00 a 24:00 en mm
DESCASC
05-04-2020 20.9 (17:00) 7.4 (07:50) 14.1 9.72 (17:10) 4.17 (17:10) 0 0 0 0 0
04-04-2020 19.5 (15:40) 6.9 (06:20) 13.2 8.33 (15:10) 3.33 (15:10) 0 0 0 0 0
03-04-2020 17.4 (16:00) 6 (06:20) 11.7 6.11 (16:00) 2.5 (16:00) 0 0 0 0 0
02-04-2020 10.5 (18:30) 4.2 (00:00) 7.3 10.56 (16:20) 5.28 (16:20) 4.8 0 3.4 1.2 0.2
01-04-2020 15.1 (16:10) 6.2 (00:00) 10.7 10.56 (16:20) 4.17 (16:30) 0.2 0.2 0 0 0
31-03-2020 13.5 (15:20) 6.1 (00:00) 9.8 8.89 (22:00) 3.61 (22:00) 27.2 11.8 1 4 10.4
30-03-2020 17.1 (16:30) 6.1 (00:00) 11.6 7.5 (20:50) 3.61 (17:00) 21.6 0 0 0 21.6
29-03-2020 18.2 (17:30) 4.6 (00:00) 11.4 6.67 (15:50) 2.78 (19:20) 0 0 0 0 0
28-03-2020 16.3 (16:30) 2.1 (00:00) 9.2 9.44 (04:00) 4.72 (04:00) 0 0 0 0 0
27-03-2020 15.4 (15:00) 4 (00:00) 9.7 12.5 (12:00) 6.67 (20:00) 0 0 0 0 0
26-03-2020 17.7 (16:30) 7.7 (00:00) 12.7 12.22 (17:40) 6.94 (17:50) 0 0 0 0 0
25-03-2020 15.7 (15:00) 5.3 (00:00) 10.5 7.78 (16:30) 5 (16:30) 0 0 0 0 0
24-03-2020 15.6 (14:20) 6.9 (00:00) 11.3 12.5 (14:00) 5 (15:50) 0 0 0 0 0
23-03-2020 15.8 (15:40) 5.4 (00:00) 10.6 8.61 (16:10) 3.33 (23:50) 6.4 0.2 1 0.6 4.6
22-03-2020 10.7 (17:00) 4 (06:10) 7.3 6.94 (15:10) 4.44 (17:20) 8.8 1 0 7.4 0.4
21-03-2020 13.4 (17:10) 5.6 (00:00) 9.5 13.33 (06:30) 6.11 (07:30) 4.6 0 2.8 0 1.8
20-03-2020 17.3 (16:30) 6.6 (00:00) 11.9 7.22 (15:10) 3.06 (15:20) 0 0 0 0 0
19-03-2020 17.8 (16:30) 6.7 (00:00) 12.2 6.39 (00:20) 2.22 (13:40) 0 0 0 0 0
18-03-2020 19.1 (15:20) 9.1 (00:00) 14.1 10.83 (00:20) 4.72 (03:50) 0 0 0 0 0
17-03-2020 15.1 (16:50) 2.9 (00:00) 9 10.56 (23:50) 3.89 (22:10) 0 0 0 0 0
16-03-2020 12.4 (00:00) 3.1 (00:00) 7.7 10 (02:20) 5.83 (05:10) 9.6 9 0.6 0 0
15-03-2020 19.8 (15:00) 10.5 (00:00) 15.1 9.44 (17:30) 3.89 (18:00) 0.4 0 0 0 0.4
14-03-2020 21.2 (17:00) 9.9 (00:00) 15.6 5.28 (13:40) 2.78 (14:40) 0 0 0 0 0
13-03-2020 22.8 (16:00) 11.7 (07:50) 17.2 7.5 (17:20) 3.61 (16:10) 0 0 0 0 0
12-03-2020 26.2 (16:40) 14.7 (00:00) 20.5 7.5 (14:40) 3.61 (14:40) 0 0 0 0 0
11-03-2020 27.4 (16:20) 12.9 (00:00) 20.1 5.28 (04:10) 2.78 (04:10) 0 0 0 0 0
10-03-2020 22.7 (17:10) 6.1 (00:00) 14.4 9.72 (11:40) 6.11 (10:30) 0 0 0 0 0
09-03-2020 18.7 (16:30) 6.5 (00:00) 12.6 6.11 (18:30) 3.33 (18:30) 0 0 0 0 0

Gráficas

Temp. máximas Temp. mínimas Temp. medias Precipitaciones Rachas de viento máximas Velocidades máximas media en intervalos de 10 minutos

Datos horarios

Fecha y hora oficial Temperatura (ºC) Velocidad del viento (km/h) Dirección del viento Racha (km/h) Dirección de racha Precipitación (mm) Presión (hPa) Tendencia (hPa) Humedad (%)
2020-04-07 23:00:00 -- -- -- -- -- -- -- -- --
2020-04-07 22:00:00 17.3 4 Sudoeste 11 Sudoeste 0 934 1.2 50
2020-04-07 21:00:00 18.6 7 Sudoeste 16 Sudoeste 0 933.4 0.7 40
2020-04-07 20:00:00 20.8 9 Sudoeste 23 Sudoeste 0 933.3 0.2 36
2020-04-07 19:00:00 21 6 Sudoeste 22 Sur 0 932.8 -0.7 45
2020-04-07 18:00:00 22.4 10 Sur 23 Sudoeste 0 932.7 -1.3 39
2020-04-07 17:00:00 22 8 Sudoeste 24 Sur 0 933.1 -1.4 35
2020-04-07 16:00:00 21.9 9 Sur 25 Sur 0 933.5 -1.3 43
2020-04-07 15:00:00 20.8 8 Sur 22 Sur 0 934 -0.8 51
2020-04-07 14:00:00 19.3 6 Sur 18 Sur 0 934.5 -0.4 58
2020-04-07 13:00:00 18.2 8 Sur 18 Este 0 934.8 0 65
2020-04-07 12:00:00 16.2 6 Sudeste 15 Sudeste 0 934.8 0.4 74
2020-04-07 11:00:00 14.4 5 Sudeste 9 Este 0 934.9 1 85
2020-04-07 10:00:00 13.2 4 Sudeste 11 Este 0 934.8 1.1 88
2020-04-07 09:00:00 12.4 0 Calma 4 Norte 0 934.4 0.7 88
2020-04-07 08:00:00 11.6 2 Norte 5 Norte 0 933.9 0.5 87
2020-04-07 07:00:00 12.2 3 Nordeste 5 Norte 0 933.7 -0.2 87
2020-04-07 06:00:00 12.3 2 Sudoeste 14 Sudeste 0.4 933.7 -0.5 86
2020-04-07 05:00:00 12.4 5 Sudeste 10 Este 0 933.4 -0.6 85
2020-04-07 04:00:00 12.5 3 Sudoeste 10 Sudoeste 0 933.9 -0.3 83
2020-04-07 03:00:00 12.8 6 Sudoeste 9 Sudoeste 0 934.2 -0.2 81
2020-04-07 02:00:00 13.5 3 Este 10 Sudeste 0 934 -0.1 78
2020-04-07 01:00:00 13.9 4 Sudoeste 9 Oeste 0 934.2 0.4 76
2020-04-07 00:00:00 13.9 5 Sudoeste 11 Sudoeste 0 934.4 1.5 76
2020-04-06 23:00:00 14 6 Oeste 12 Sudoeste 0 934.1 1.6 74
2020-04-06 22:00:00 14.8 7 Sudoeste 12 Sudoeste 0 933.8 1.4 71
2020-04-06 21:00:00 15.9 5 Oeste 13 Sudoeste 0 932.9 0.3 65
2020-04-06 20:00:00 17.4 6 Sudoeste 19 Sudoeste 0 932.5 -0.2 58
2020-04-06 19:00:00 18.8 7 Oeste 24 Sudoeste 0 932.4 -0.5 56
2020-04-06 18:00:00 18.6 12 Sudoeste 27 Sur 0 932.6 -0.6 54
2020-04-06 17:00:00 18.4 12 Sudoeste 24 Oeste 0 932.7 -0.6 54
2020-04-06 16:00:00 17.7 9 Sudoeste 19 Sudoeste 0 932.9 -0.4 58
2020-04-06 15:00:00 17.2 6 Sur 21 Sudoeste 0 933.2 0 59
2020-04-06 14:00:00 17.3 9 Sur 22 Sur 0 933.3 0.4 59
2020-04-06 13:00:00 16.3 10 Sudoeste 22 Oeste 0 933.3 0.9 60
2020-04-06 12:00:00 14.6 7 Sur 15 Sur 0 933.2 1.4 68
2020-04-06 11:00:00 13.3 4 Sur 12 Sur 0 932.9 1.7 75
2020-04-06 10:00:00 12.4 4 Sur 9 Sur 0 932.4 1.7 83
2020-04-06 09:00:00 10.9 3 Sudeste 7 Sudeste 0 931.8 1.4 84
2020-04-06 08:00:00 10.9 6 Sudeste 9 Sur 0 931.2 0.9 83
2020-04-06 07:00:00 11.3 4 Sur 13 Sudoeste 0 930.7 0 84
2020-04-06 06:00:00 11.2 6 Sudoeste 16 Sudoeste 0 930.4 -0.3 84
2020-04-06 05:00:00 11 6 Oeste 17 Oeste 0 930.3 -0.4 83
2020-04-06 04:00:00 11 5 Sur 13 Sudoeste 0 930.7 0.4 81
2020-04-06 03:00:00 11.2 5 Sudoeste 12 Sudoeste 0 930.7 0.6 78
2020-04-06 02:00:00 11.6 7 Sudoeste 14 Sudoeste 0 930.7 0.7 76
2020-04-06 01:00:00 12.4 8 Sudoeste 23 Sudoeste 0 930.3 0.8 71
2020-04-06 00:00:00 13.2 11 Sudoeste 22 Oeste 0 930.1 1.3 66
2020-04-05 23:00:00 14.1 5 Oeste 13 Sudoeste 0 930 1.5 60
2020-04-05 22:00:00 14.8 5 Sudoeste 12 Oeste 0 929.5 1.3 57
2020-04-05 21:00:00 15.7 6 Sudoeste 18 Sudoeste 0 928.8 0.9 56
2020-04-05 20:00:00 16.8 9 Sudoeste 21 Sudoeste 0 928.5 0.5 52
2020-04-05 19:00:00 18 12 Sudoeste 30 Sur 0 928.2 -0.2 48
2020-04-05 18:00:00 19.9 12 Sudoeste 35 Sudoeste 0 927.9 -0.9 41
2020-04-05 17:00:00 20.7 13 Sudoeste 31 Sudoeste 0 928 -1.4 38
2020-04-05 16:00:00 20.5 10 Sudoeste 30 Sur 0 928.4 -1.5 39
2020-04-05 15:00:00 19.4 11 Sur 28 Sudoeste 0 928.8 -1.1 40
2020-04-05 14:00:00 18.3 8 Sudeste 23 Oeste 0 929.4 -0.4 43
2020-04-05 13:00:00 17.2 10 Sur 23 Sudoeste 0 929.9 0.4 42
2020-04-05 12:00:00 14.7 4 Sudeste 13 Este 0 929.9 0.7 56
2020-04-05 11:00:00 12.2 3 Sur 13 Este 0 929.8 1.3 65
2020-04-05 10:00:00 9.7 3 Este 7 Este 0 929.5 1.3 77
2020-04-05 09:00:00 8 3 Norte 9 Nordeste 0 929.2 1.3 80
2020-04-05 08:00:00 7.4 3 Nordeste 7 Nordeste 0 928.5 0.8 79
2020-04-05 07:00:00 7.7 3 Norte 6 Norte 0 928.2 0.3 77
2020-04-05 06:00:00 8.1 3 Nordeste 8 Este 0 927.9 -0.1 76
2020-04-05 05:00:00 8.6 6 Este 12 Sudeste 0 927.7 -0.7 74
2020-04-05 04:00:00 9 6 Este 16 Este 0 927.9 -0.5 73
2020-04-05 03:00:00 9.5 4 Sudeste 9 Este 0 928 -0.2 70
2020-04-05 02:00:00 10.1 3 Nordeste 6 Sudeste 0 928.4 0.5 69
2020-04-05 01:00:00 11 5 Sudeste 11 Sudeste 0 928.4 1.1 66
2020-04-05 00:00:00 12 3 Sudeste 10 Sur 0 928.2 1.9 61
2020-04-04 23:00:00 12.4 2 Sur 6 Sudeste 0 927.9 1.4 60
2020-04-04 22:00:00 13 4 Sudeste 16 Sudeste 0 927.3 1.4 56
2020-04-04 21:00:00 13.9 8 Sudeste 27 Sur 0 926.3 0.5 53
2020-04-04 20:00:00 15.2 10 Sur 26 Sur 0 926.5 0.7 46
2020-04-04 19:00:00 16.7 10 Sudeste 26 Sur 0 925.9 -0.1 41
2020-04-04 18:00:00 16.9 9 Sudeste 22 Sur 0 925.8 -0.3 40
2020-04-04 17:00:00 18.5 12 Sur 28 Sudeste 0 925.8 -0.5 32
2020-04-04 16:00:00 19.4 9 Sur 30 Sudeste 0 926 -0.5 33
2020-04-04 15:00:00 18.9 10 Sur 22 Sudeste 0 926.1 -0.6 33
2020-04-04 14:00:00 17.3 10 Sudeste 24 Sudeste 0 926.3 -0.3 37
2020-04-04 13:00:00 15.9 6 Sur -- -- 0 926.5 0.1 41
2020-04-04 12:00:00 13.7 9 Sudeste 18 Sudeste 0 926.7 0.5 51
2020-04-04 11:00:00 11.4 4 Este 12 Este 0 926.6 0.7 58
2020-04-04 10:00:00 8.5 3 Sudeste 10 Sudeste 0 926.4 0.8 74
2020-04-04 09:00:00 6.9 4 Norte 12 Este 0 926.2 0.4 78
2020-04-04 08:00:00 7 7 Este 13 Este 0 925.9 -0.5 77
2020-04-04 07:00:00 7.2 6 Este 14 Este 0 925.6 -1.1 78
2020-04-04 06:00:00 7.3 4 Norte 7 Nordeste 0 925.8 -1.2 77
2020-04-04 05:00:00 7.7 4 Norte 5 Norte 0 926.4 -0.8 74
2020-04-04 04:00:00 8.2 2 Norte 5 Noroeste 0 926.7 -0.8 72
2020-04-04 03:00:00 8.4 2 Sudeste 9 Norte 0 927 -0.2 72
2020-04-04 02:00:00 9.1 4 Noroeste 7 Noroeste 0 927.2 0.2 65
2020-04-04 01:00:00 9.1 3 Noroeste 12 Sudeste 0 927.5 0.9 65
2020-04-04 00:00:00 10.6 3 Norte 9 Nordeste 0 927.2 1 60
2020-04-03 23:00:00 10.8 5 Nordeste 8 Nordeste 0 927 0.9 58
2020-04-03 22:00:00 12.2 4 Norte 5 Norte 0 926.6 0.5 52
2020-04-03 21:00:00 13.9 3 Noroeste 5 Nordeste 0 926.2 0 48
2020-04-03 20:00:00 16 3 Nordeste 9 Nordeste 0 926.1 -0.2 42
2020-04-03 19:00:00 16.6 5 Nordeste 11 Este 0 926.1 -0.7 43
2020-04-03 18:00:00 15.9 3 Sudeste 18 Este 0 926.2 -1.1 48
2020-04-03 17:00:00 17.2 5 Nordeste 18 Este 0 926.3 -1.5 45
2020-04-03 16:00:00 17.3 9 Sudeste 22 Sudeste 0 926.8 -1.5 47
2020-04-03 15:00:00 16.1 8 Sudeste 19 Sur 0 927.3 -1.1 51
2020-04-03 14:00:00 14.3 6 Sudeste 20 Este 0 927.8 -0.5 56
2020-04-03 13:00:00 12.9 6 Sudeste 16 Sudeste 0 928.3 0.5 70
2020-04-03 12:00:00 10 4 Nordeste 12 Nordeste 0 928.4 1.1 89
2020-04-03 11:00:00 8.1 4 Sudeste 15 Este 0 928.3 1.4 91
2020-04-03 10:00:00 6.9 3 Este 12 Nordeste 0 927.8 1.2 91
2020-04-03 09:00:00 6.3 4 Norte 9 Norte 0 927.3 1.1 90
2020-04-03 08:00:00 6.2 3 Nordeste 10 Nordeste 0 926.9 0.9 90
2020-04-03 07:00:00 6.1 2 Nordeste 9 Este 0 926.6 0.7 90
2020-04-03 06:00:00 6.1 4 Norte 9 Norte 0 926.2 0.2 90
2020-04-03 05:00:00 6.4 3 Oeste 5 Norte 0 926 0 89
2020-04-03 04:00:00 6.3 2 Sur 5 Norte 0 925.9 -0.2 89
2020-04-03 03:00:00 6.6 3 Sur 9 Sur 0 926 -0.3 89
2020-04-03 02:00:00 6.5 3 Sudeste 8 Sudeste 0 926 0.1 88
2020-04-03 01:00:00 7.4 4 Oeste 8 Sur 0 926.1 1.1 88
2020-04-03 00:00:00 7.2 3 Noroeste 13 Sudeste 0.2 926.3 2.3 88
2020-04-02 23:00:00 7.1 5 Sudeste 10 Sudeste 0 925.9 2.7 86
2020-04-02 22:00:00 7.7 4 Sudeste 13 Sur 0 925 2.4 84
2020-04-02 21:00:00 8.8 9 Sur 14 Sur 0 924 1.8 80
2020-04-02 20:00:00 10 3 Nordeste 15 Norte 0 923.2 1 71
2020-04-02 19:00:00 10.3 8 Noroeste 24 Norte 0 922.6 0.7 71
2020-04-02 18:00:00 9.4 8 Norte 32 Norte 0 922.2 0 75
2020-04-02 17:00:00 8.7 9 Norte 38 Norte 0.4 922.2 -0.1 82
2020-04-02 16:00:00 9.6 12 Noroeste 19 Noroeste 0 921.9 -1.1 82
2020-04-02 15:00:00 9.9 8 Sudoeste 16 Sudoeste 0.2 922.2 -1 84
2020-04-02 14:00:00 7.9 7 Noroeste 13 Oeste 0 922.3 -0.3 86
2020-04-02 13:00:00 7.6 4 Sudoeste 12 Sudoeste 0.6 923 0.9 88
2020-04-02 12:00:00 7.2 4 Sur 10 Sudoeste 0.6 923.2 1.3 88
2020-04-02 11:00:00 6.8 5 Sudoeste 9 Sudoeste 0.4 922.6 0.8 89
2020-04-02 10:00:00 6.1 4 Noroeste 6 Norte 1.2 922.1 0.5 89
2020-04-02 09:00:00 5.6 2 Norte 4 Norte 0.4 921.9 0.1 89
2020-04-02 08:00:00 5.2 2 Norte 6 Norte 0.8 921.8 -0.5 89
2020-04-02 07:00:00 5 2 Norte 3 Norte 0 921.6 -1.3 88
2020-04-02 06:00:00 4.7 3 Norte 4 Norte 0 921.8 -1.8 88
2020-04-02 05:00:00 4.5 0 Calma 7 Este 0 922.3 -1.6 88
2020-04-02 04:00:00 4.2 0 Calma 7 Nordeste 0 922.9 -1.5 87
2020-04-02 03:00:00 5 5 Sur 9 Sur 0 923.6 -0.9 87
2020-04-02 02:00:00 5.7 6 Sudoeste 15 Sudoeste 0 923.9 -0.5 86
2020-04-02 01:00:00 6.1 7 Sudoeste 17 Sudoeste 0 924.4 0.5 85
2020-04-02 00:00:00 6.6 6 Sur 18 Sur 0 924.5 1.4 82
2020-04-01 23:00:00 7.7 8 Sur 14 Sur 0 924.4 1.7 73
2020-04-01 22:00:00 8.4 5 Oeste 20 Sudoeste 0 923.9 1.3 64
2020-04-01 21:00:00 9.9 10 Sudoeste 25 Sudoeste 0 923.1 0.6 55
2020-04-01 20:00:00 12.4 10 Sudoeste 30 Sudoeste 0 922.7 0.1 51
2020-04-01 19:00:00 12.7 13 Sur 31 Sudoeste 0 922.6 -0.1 52
2020-04-01 18:00:00 14 12 Sudoeste 33 Oeste 0 922.5 -0.8 50
2020-04-01 17:00:00 14.2 12 Sur 38 Sur 0 922.6 -1 54
2020-04-01 16:00:00 14.7 12 Sur 30 Sudoeste 0 922.7 -1.3 55
2020-04-01 15:00:00 13.5 11 Sudoeste 31 Sudoeste 0 923.3 -1 56
2020-04-01 14:00:00 11.6 8 Sudoeste 27 Sudoeste 0 923.6 -0.4 67
2020-04-01 13:00:00 11.3 9 Sudoeste 23 Sur 0 924 0.1 70
2020-04-01 12:00:00 9.7 8 Sudoeste 22 Sudoeste 0 924.3 1.1 82
2020-04-01 11:00:00 8.5 9 Sudoeste 19 Sudoeste 0 924 1.5 89
2020-04-01 10:00:00 7.8 7 Sudoeste -- -- 0 923.9 1.7 90
2020-04-01 09:00:00 6.7 4 Sur 12 Sudoeste 0 923.2 1 90
2020-04-01 08:00:00 6.2 6 Sur 13 Sudoeste 0 922.5 0.5 90
2020-04-01 07:00:00 6.6 4 Sur 14 Sudoeste 0 922.2 0.2 90
2020-04-01 06:00:00 7.4 7 Sudoeste 19 Sudoeste 0 922.2 -0.1 90
2020-04-01 05:00:00 7.3 7 Sudoeste 15 Oeste 0 922 -0.3 90
2020-04-01 04:00:00 7.6 4 Sur 19 Sudoeste 0 922 -0.1 90
2020-04-01 03:00:00 8.2 9 Sudoeste 20 Sudoeste 0 922.3 0.5 90
2020-04-01 02:00:00 8.5 11 Sudoeste 25 Oeste 0 922.3 0.8 90
2020-04-01 01:00:00 9 8 Sudoeste 28 Sudoeste 0.2 922.1 1.2 90
2020-04-01 00:00:00 9.4 9 Sur 26 Sudoeste 0 921.8 1.9 89
2020-03-31 23:00:00 9.1 6 Sur 16 Oeste 0 921.5 2.2 89
2020-03-31 22:00:00 8.6 13 Noroeste 32 Noroeste 3.6 920.9 2.3 88
2020-03-31 21:00:00 9.4 3 Norte 5 Noroeste 0 919.9 1.4 87
2020-03-31 20:00:00 9.9 4 Sudeste 16 Sur 6.8 919.3 0.8 87
2020-03-31 19:00:00 10.6 3 Nordeste 7 Nordeste 0 918.6 1.2 86
2020-03-31 18:00:00 10.8 3 Norte 15 Noroeste 0.2 918.5 0.5 86
2020-03-31 17:00:00 10.7 9 Oeste 28 Sudeste 3.4 918.5 0.1 81
2020-03-31 16:00:00 12.7 9 Sudeste 28 Sur 0 917.4 -0.9 72
2020-03-31 15:00:00 12.8 9 Sudeste 22 Sur 0 918 -0.2 80
2020-03-31 14:00:00 11 6 Sur 21 Sur 0.2 918.4 0.7 88
2020-03-31 13:00:00 10.6 10 Sur 26 Sur 0.2 918.3 1.1 90
2020-03-31 12:00:00 9.5 10 Sudeste 28 Sur 0.2 918.2 1.6 90
2020-03-31 11:00:00 9.1 8 Sudeste 15 Este 0 917.7 1.7 90
2020-03-31 10:00:00 8 6 Sudeste 16 Sur 0.6 917.2 1.5 91
2020-03-31 09:00:00 7.2 2 Nordeste 11 Sudeste 0 916.6 0 90
2020-03-31 08:00:00 7 4 Sudeste 15 Este 0 916 -1.1 90
2020-03-31 07:00:00 6.9 5 Sudeste 10 Sudeste 0.2 915.7 -1.6 90
2020-03-31 06:00:00 7 5 Sudeste 19 Sur 3.4 916.6 -1.4 90
2020-03-31 05:00:00 7 4 Sur 8 Sudoeste 2.4 917.1 -1.6 90
2020-03-31 04:00:00 6.9 4 Noroeste 9 Este 2.6 917.3 -2.1 90
2020-03-31 03:00:00 6.8 3 Este 9 Este 1.6 918 -2 90
2020-03-31 02:00:00 6.9 4 Sudeste 11 Sudeste 1.4 918.7 -1.4 90
2020-03-31 01:00:00 6.3 4 Norte 9 Nordeste 0.4 919.4 -1.1 89
2020-03-31 00:00:00 6.1 8 Nordeste 18 Norte 0.6 920 0.1 89
2020-03-30 23:00:00 6.8 10 Nordeste 21 Norte 2.2 920.1 0.7 89
2020-03-30 22:00:00 8.3 9 Noroeste 20 Sudeste 6 920.5 0.7 88
2020-03-30 21:00:00 8.6 9 Sudeste 27 Sudeste 6.6 919.9 0.2 87
2020-03-30 20:00:00 9 10 Norte 19 Norte 0.4 919.4 -0.7 85
2020-03-30 19:00:00 10.4 8 Sudeste 23 Nordeste 5.8 919.8 -1.1 77
2020-03-30 18:00:00 12 11 Nordeste 23 Norte 0 919.7 -2.1 64
2020-03-30 17:00:00 14.1 13 Norte 22 Norte 0 920.1 -2.5 58
2020-03-30 16:00:00 16.2 7 Sur 14 Sudeste 0 920.9 -2.5 50
2020-03-30 15:00:00 14.9 6 Sudeste 16 Sur 0 921.8 -2.2 58
2020-03-30 14:00:00 14.3 6 Sur 19 Sur 0 922.6 -1.6 62
2020-03-30 13:00:00 13.4 9 Sur 17 Sur 0 923.4 -0.9 66
2020-03-30 12:00:00 11.4 5 Sudeste 13 Sur 0 924 -0.3 75
2020-03-30 11:00:00 10.1 4 Sudeste 12 Sur 0 924.2 0.3 81
2020-03-30 10:00:00 8.9 4 Sur 9 Sur 0 924.3 0.4 84
2020-03-30 09:00:00 8.1 4 Sur 9 Sudeste 0 924.3 0.2 85
2020-03-30 08:00:00 8.1 4 Oeste 11 Sur 0 923.9 -1 83
2020-03-30 07:00:00 8.3 5 Sur 12 Sur 0 923.9 -1.4 79
2020-03-30 06:00:00 9 6 Sur 12 Sur 0 924.1 -1.6 75
2020-03-30 05:00:00 9.4 6 Sur 10 Sur 0 924.9 -1.2 72
2020-03-30 04:00:00 9.7 3 Sur 12 Sudoeste 0 925.3 -1.4 69
2020-03-30 03:00:00 10.5 5 Sur 14 Sur 0 925.7 -1.4 66
2020-03-30 02:00:00 11.2 8 Oeste 15 Oeste 0 926.1 -1.1 61
2020-03-30 01:00:00 11.2 8 Oeste 15 Oeste 0 926.7 -0.4 61
2020-03-30 00:00:00 11.4 8 Oeste 17 Oeste 0 927.1 0.3 60
2020-03-29 23:00:00 11.6 9 Oeste 15 Oeste 0 927.2 0.3 59
2020-03-29 22:00:00 12.2 5 Oeste 14 Sudoeste 0 927.1 0.3 57
2020-03-29 21:00:00 13.1 6 Sudoeste 17 Sudoeste 0 926.8 -0.1 53
2020-03-29 20:00:00 14.9 7 Sudoeste 23 Sudoeste 0 926.9 -0.4 48
2020-03-29 19:00:00 16.5 8 Sudoeste 20 Sudoeste 0 926.8 -1 41
2020-03-29 18:00:00 18.1 9 Sudoeste 19 Sudeste 0 926.9 -1.8 39
2020-03-29 17:00:00 17.2 7 Sur 18 Sur 0 927.3 -1.8 43
2020-03-29 16:00:00 16.9 6 Sur 24 Sur 0 927.8 -1.8 45
2020-03-29 15:00:00 16.7 10 Sur 22 Sur 0 928.7 -1.4 49
2020-03-29 14:00:00 15.5 8 Sur 19 Sur 0 929.1 -1.1 55
2020-03-29 13:00:00 13.2 4 Sudeste 18 Sur 0 929.6 -0.4 60
2020-03-29 12:00:00 11.3 5 Sur 13 Sudeste 0 930.1 0.3 68
2020-03-29 11:00:00 9.3 3 Sudoeste 12 Sudoeste 0 930.2 0.9 78
2020-03-29 10:00:00 7.6 6 Sudoeste 17 Sudoeste 0 930 0.9 82
2020-03-29 09:00:00 4.8 3 Norte 9 Norte 0 929.8 0.7 73
2020-03-29 08:00:00 4.9 2 Nordeste 12 Sudoeste 0 929.3 0.1 72
2020-03-29 07:00:00 5.4 4 Sur 6 Sudoeste 0 929.1 -0.5 68
2020-03-29 06:00:00 5.8 3 Norte 4 Norte 0 929.1 -0.7 63
2020-03-29 05:00:00 6.3 3 Norte 8 Este 0 929.2 -0.7 60
2020-03-29 03:00:00 7.1 4 Norte 11 Este 0 929.8 0.4 52
2020-03-29 01:00:00 7.7 3 Norte 6 Norte 0 929.9 0.6 46
2020-03-29 00:00:00 8.2 6 Nordeste 15 Norte 0 929.7 0.8 44
2020-03-28 23:00:00 8.8 8 Nordeste 17 Nordeste 0 929.4 1.3 45
2020-03-28 22:00:00 9.2 8 Nordeste 15 Norte 0 929.3 1.7 47
2020-03-28 21:00:00 10 9 Norte 21 Nordeste 0 928.9 1.7 47
2020-03-28 20:00:00 10.7 6 Norte 13 Norte 0 928.1 1.1 50
2020-03-28 19:00:00 12.5 5 Oeste 8 Norte 0 927.6 0.6 43
2020-03-28 18:00:00 14.1 5 Norte 13 Nordeste 0 927.2 -0.1 37
2020-03-28 17:00:00 14.5 6 Nordeste 13 Sudoeste 0 927 -0.6 37
2020-03-28 16:00:00 14.7 3 Sudoeste 13 Nordeste 0 927 -0.7 41
2020-03-28 15:00:00 14.2 6 Nordeste 16 Norte 0 927.3 -0.6 41
2020-03-28 14:00:00 13.3 5 Este 19 Noroeste 0 927.6 -0.2 43
2020-03-28 13:00:00 13 5 Noroeste 14 Noroeste 0 927.7 0.3 46
2020-03-28 12:00:00 12.8 5 Sur 17 Este 0 927.9 1.1 48
2020-03-28 11:00:00 10.7 6 Sudeste 17 Sudeste 0 927.8 1.3 61
2020-03-28 10:00:00 7.1 4 Sudoeste 13 Sudeste 0 927.4 1.5 76
2020-03-28 09:00:00 3.9 6 Norte 11 Nordeste 0 926.8 1.5 85
2020-03-28 08:00:00 2.3 8 Nordeste 16 Nordeste 0 926.5 1.5 86
2020-03-28 07:00:00 2.5 10 Nordeste 21 Nordeste 0 925.9 0.9 86
2020-03-28 06:00:00 2.2 8 Nordeste 21 Nordeste 0 925.3 0.7 86
2020-03-28 05:00:00 2.3 10 Nordeste 24 Nordeste 0 925 0.3 85
2020-03-28 04:00:00 2.3 17 Nordeste 34 Norte 0 925 0.5 84
2020-03-28 03:00:00 2.9 8 Nordeste 15 Nordeste 0 924.6 0.3 83
2020-03-28 02:00:00 3.3 11 Nordeste 23 Nordeste 0 924.7 0.7 81
2020-03-28 01:00:00 3.1 9 Nordeste 28 Norte 0 924.5 1 81
2020-03-28 00:00:00 4 15 Nordeste 29 Norte 0 924.3 1.5 79
2020-03-27 23:00:00 5.2 9 Norte 36 Nordeste 0 924 2.3 72
2020-03-27 22:00:00 5.5 18 Norte 35 Nordeste 0 923.5 2.3 74
2020-03-27 21:00:00 6.1 15 Norte 38 Norte 0 922.8 2.2 74
2020-03-27 20:00:00 6.8 24 Norte 42 Norte 0 921.7 1.6 74
2020-03-27 19:00:00 8.1 19 Norte 32 Norte 0 921.2 1.1 69
2020-03-27 18:00:00 9.1 19 Norte 36 Norte 0 920.6 0.6 64
2020-03-27 17:00:00 10.2 22 Norte 40 Norte 0 920.1 -0.1 60
2020-03-27 16:00:00 10.7 24 Norte 40 Norte 0 920.1 -0.4 58
2020-03-27 15:00:00 15.4 9 Sudoeste 39 Sudoeste 0 920 -0.8 35
2020-03-27 14:00:00 13.3 16 Oeste 41 Sudoeste 0 920.2 -0.5 40
2020-03-27 13:00:00 12.8 14 Sudoeste 41 Sudoeste 0 920.5 0.1 50
2020-03-27 12:00:00 12.1 20 Sudoeste 45 Sudoeste 0 920.8 0.8 54
2020-03-27 11:00:00 11.3 17 Sudoeste 39 Sudoeste 0 920.7 1 62
2020-03-27 10:00:00 9.7 14 Sudoeste 34 Sudoeste 0 920.4 1.3 76
2020-03-27 09:00:00 8.2 11 Sudoeste 27 Sudoeste 0 920 1.3 83
2020-03-27 08:00:00 6.9 7 Sudoeste 13 Oeste 0 919.7 1 82
2020-03-27 07:00:00 6.4 6 Sudoeste 11 Sudoeste 0 919.1 0.2 79
2020-03-27 06:00:00 6.4 4 Sur 9 Oeste 0 918.7 -0.5 75
2020-03-27 05:00:00 6.6 6 Sudoeste 10 Sudoeste 0 918.7 -1.1 72
2020-03-27 04:00:00 6.9 4 Sur 12 Sur 0 918.9 -1 67
2020-03-27 03:00:00 7.8 4 Nordeste 12 Sudoeste 0 919.2 -0.9 58
2020-03-27 02:00:00 8.8 8 Sudoeste 11 Sudoeste 0 919.8 -0.4 55
2020-03-27 01:00:00 9.8 5 Sur 17 Noroeste 0 919.9 -0.1 52
2020-03-27 00:00:00 11.2 10 Noroeste 27 Noroeste 0 920.1 0.1 44
2020-03-26 23:00:00 11.1 7 Oeste 28 Noroeste 0 920.2 0.5 45
2020-03-26 22:00:00 12 19 Noroeste 32 Noroeste 0 920 0.5 41
2020-03-26 21:00:00 12.2 12 Oeste 25 Oeste 0 920 1 42
2020-03-26 20:00:00 13.2 17 Oeste 31 Oeste 0 919.7 0.8 43
2020-03-26 19:00:00 15 14 Noroeste 42 Noroeste 0 919.5 0.4 35
2020-03-26 18:00:00 16.1 21 Noroeste 44 Noroeste 0 919 -0.5 29
2020-03-26 17:00:00 16.7 17 Oeste 41 Noroeste 0 918.9 -1.4 30
2020-03-26 16:00:00 16.8 8 Oeste 30 Sudoeste 0 919.1 -1.8 53
2020-03-26 15:00:00 16.1 15 Sudoeste 32 Sudoeste 0 919.5 -2.1 58
2020-03-26 14:00:00 15.6 11 Sur 31 Sur 0 920.3 -1.6 59
2020-03-26 13:00:00 14.5 12 Sudoeste 27 Sur 0 920.9 -1.1 63
2020-03-26 12:00:00 12.4 10 Sur 24 Sudoeste 0 921.6 -0.5 75
2020-03-26 11:00:00 11.9 12 Sudoeste 23 Oeste 0 921.9 -0.4 72
2020-03-26 10:00:00 10.8 12 Noroeste 25 Noroeste 0 922 0 76
2020-03-26 09:00:00 8.8 7 Oeste 18 Sudoeste 0 922.1 0.3 86
2020-03-26 08:00:00 8.2 5 Oeste 17 Sudoeste 0 922.3 0.3 88
2020-03-26 07:00:00 7.9 8 Sudoeste 18 Sudoeste 0 922 -0.7 88
2020-03-26 06:00:00 8 6 Sur 17 Sudoeste 0 921.8 -1.7 87
2020-03-26 05:00:00 8.3 8 Sudoeste 18 Sudoeste 0 922 -1.9 86
2020-03-26 04:00:00 8.9 9 Sudoeste 21 Sudoeste 0 922.7 -1.4 86
2020-03-26 03:00:00 9.2 11 Sudoeste 24 Sudoeste 0 923.5 -1 85
2020-03-26 02:00:00 9.4 9 Sudoeste 22 Sudoeste 0 923.9 -1.1 85
2020-03-26 01:00:00 9.5 13 Sudoeste 26 Sudoeste 0 924.1 -1 85
2020-03-26 00:00:00 9.3 12 Sudoeste 21 Sudoeste 0 924.5 -0.6 81
2020-03-25 23:00:00 9.9 10 Sudoeste 18 Sudoeste 0 925 0.2 77
2020-03-25 22:00:00 10.5 8 Sudoeste 14 Oeste 0 925.1 0.5 67
2020-03-25 21:00:00 11.5 8 Sudoeste 18 Sudoeste 0 925.1 0.4 47
2020-03-25 20:00:00 12.3 5 Oeste 10 Oeste 0 924.8 -0.1 38
2020-03-25 19:00:00 13.9 6 Noroeste 22 Norte 0 924.6 -0.6 35
2020-03-25 18:00:00 14.6 10 Norte 25 Noroeste 0 924.7 -0.9 33
2020-03-25 17:00:00 14.3 15 Noroeste 28 Noroeste 0 924.9 -1.4 33
2020-03-25 16:00:00 14 7 Norte 26 Norte 0 925.2 -1.5 32
2020-03-25 15:00:00 15.6 5 Oeste 21 Norte 0 925.6 -1.4 34
2020-03-25 14:00:00 13.7 7 Norte 24 Norte 0 926.3 -0.7 41
2020-03-25 13:00:00 13.6 4 Noroeste 23 Norte 0 926.7 0 43
2020-03-25 12:00:00 12.2 10 Norte 23 Norte 0 927 0.5 45
2020-03-25 11:00:00 10.4 10 Norte 18 Norte 0 927 0.9 51
2020-03-25 10:00:00 8.4 3 Nordeste 14 Norte 0 926.7 0.8 61
2020-03-25 09:00:00 6.2 8 Norte 12 Norte 0 926.5 0.6 69
2020-03-25 08:00:00 5.5 9 Nordeste 20 Nordeste 0 926.1 0.3 71
2020-03-25 07:00:00 5.7 8 Nordeste 15 Nordeste 0 925.9 -0.2 70
2020-03-25 06:00:00 6.8 5 Norte 14 Nordeste 0 925.9 -0.4 69
2020-03-25 05:00:00 7.1 4 Nordeste 16 Nordeste 0 925.8 -0.6 68
2020-03-25 04:00:00 7.4 6 Este 22 Norte 0 926.1 -0.2 65
2020-03-25 03:00:00 7.5 8 Nordeste 24 Este 0 926.3 0.3 65
2020-03-25 02:00:00 7.7 5 Nordeste 28 Nordeste 0 926.4 0.4 65
2020-03-25 01:00:00 8 7 Nordeste 28 Nordeste 0 926.3 0.7 67
2020-03-25 00:00:00 8.3 12 Norte 36 Nordeste 0 926 0.9 68
2020-03-24 23:00:00 8.5 13 Nordeste 36 Nordeste 0 926 1.6 70
2020-03-24 22:00:00 8.8 18 Nordeste 35 Nordeste 0 925.6 1.8 69
2020-03-24 21:00:00 9.5 14 Nordeste 29 Nordeste 0 925.1 1.9 68
2020-03-24 20:00:00 10.5 12 Nordeste 31 Nordeste 0 924.4 1.7 65
2020-03-24 19:00:00 11.6 10 Nordeste 41 Este 0 923.8 1.2 58
2020-03-24 18:00:00 12.5 10 Nordeste 37 Nordeste 0 923.2 0.6 55
2020-03-24 17:00:00 13.6 10 Nordeste 43 Nordeste 0 922.7 -0.1 51
2020-03-24 16:00:00 15.3 10 Nordeste 45 Norte 0 922.6 -0.5 47
2020-03-24 15:00:00 14.6 14 Nordeste 41 Nordeste 0 922.6 -0.6 47
2020-03-24 14:00:00 14.7 14 Nordeste 45 Nordeste 0 922.8 -0.3 52
2020-03-24 13:00:00 13.2 10 Nordeste 38 Este 0 923.1 0.2 56
2020-03-24 12:00:00 13.8 11 Nordeste 39 Nordeste 0 923.2 0.4 54
2020-03-24 11:00:00 11.5 11 Nordeste 35 Nordeste 0 923.1 0.5 63
2020-03-24 10:00:00 10.1 13 Nordeste 37 Nordeste 0 922.9 0.5 65
2020-03-24 09:00:00 8.9 14 Nordeste 34 Nordeste 0 922.8 0.5 67
2020-03-24 08:00:00 7.6 13 Nordeste 33 Nordeste 0 922.6 0.2 70
2020-03-24 07:00:00 7.4 12 Nordeste 32 Nordeste 0 922.4 -0.1 70
2020-03-24 06:00:00 7.3 8 Nordeste 33 Nordeste 0 922.3 -0.6 78
2020-03-24 05:00:00 7.2 16 Norte 33 Norte 0 922.4 -0.9 78
2020-03-24 04:00:00 7.4 14 Nordeste 27 Norte 0 922.5 -1.2 76
2020-03-24 03:00:00 7.2 8 Norte 27 Nordeste 0 922.9 -1.2 78
2020-03-24 02:00:00 7.6 8 Nordeste 30 Nordeste 0 923.3 -0.9 77
2020-03-24 01:00:00 7.6 12 Nordeste 27 Nordeste 0 923.7 -0.7 80
2020-03-24 00:00:00 7.6 10 Nordeste 23 Nordeste 0 924.1 -0.6 86
2020-03-23 23:00:00 8 9 Nordeste 14 Nordeste 0.2 924.2 0.4 88
2020-03-23 22:00:00 8.3 6 Norte 10 Norte 0.6 924.4 1.2 86
2020-03-23 21:00:00 8.9 5 Este 15 Este 3.2 924.7 1.8 84
2020-03-23 20:00:00 9.7 5 Este 18 Nordeste 0.6 923.8 1.3 78
2020-03-23 19:00:00 10.7 4 Nordeste 30 Este 0 923.2 0.5 68
2020-03-23 18:00:00 11.6 8 Este 31 Este 0 922.9 -0.1 64
2020-03-23 17:00:00 11.2 6 Nordeste 31 Este 0.6 922.5 -1.2 72
2020-03-23 16:00:00 13.9 9 Este 28 Este 0 922.7 -1.6 51
2020-03-23 15:00:00 15.4 6 Sudeste 22 Sudeste 0 923 -1.6 46
2020-03-23 14:00:00 13.9 5 Sudeste 17 Sudeste 0 923.7 -1.1 52
2020-03-23 13:00:00 12.7 7 Sudeste 21 Este 0 924.3 -0.5 58
2020-03-23 12:00:00 12.2 8 Sudeste 19 Este 0 924.6 0.2 60
2020-03-23 11:00:00 9.9 5 Sudeste 12 Sudeste 0 924.8 0.7 73
2020-03-23 10:00:00 8.1 6 Sudeste 16 Sudeste 0 924.8 0.9 86
2020-03-23 09:00:00 6.5 7 Norte 13 Nordeste 0 924.4 0.8 88
2020-03-23 08:00:00 6.1 6 Norte 9 Norte 0.4 924.1 0.7 89
2020-03-23 07:00:00 6 3 Este 8 Nordeste 0.6 923.9 0.6 89
2020-03-23 06:00:00 5.9 0 Calma 8 Este 0.2 923.6 0.1 88
2020-03-23 05:00:00 6.2 0 Calma 8 Este 0 923.4 -0.3 88
2020-03-23 04:00:00 5.7 3 Norte 4 Noroeste 0 923.3 -0.5 88
2020-03-23 03:00:00 5.4 3 Norte 5 Norte 0 923.5 -0.5 87
2020-03-23 02:00:00 5.7 0 Calma 4 Este 0 923.7 -0.3 87
2020-03-23 01:00:00 5.8 0 Calma 7 Este 0 923.8 0.2 87
2020-03-23 00:00:00 6.1 3 Nordeste 8 Este 0 924 0.7 87
2020-03-22 23:00:00 6.5 2 Nordeste 5 Este 0 924 1.3 87
2020-03-22 22:00:00 6.3 3 Norte 11 Sudeste 0 923.6 1.6 87
2020-03-22 21:00:00 7.1 6 Sudeste 12 Sudeste 0 923.3 1.8 86
2020-03-22 20:00:00 7.1 4 Este 15 Nordeste 0 922.7 1.5 83
2020-03-22 19:00:00 8.2 6 Nordeste 13 Nordeste 0.4 922 0.9 81
2020-03-22 18:00:00 9.6 5 Este 24 Norte 0 921.5 0.1 78
2020-03-22 17:00:00 10.7 6 Norte 22 Noroeste 0 921.2 -0.3 81
2020-03-22 16:00:00 7.2 10 Norte 25 Norte 0 921.1 -0.6 87
2020-03-22 15:00:00 7.1 12 Norte 21 Noroeste 2.8 921.4 -0.7 86
2020-03-22 14:00:00 8 9 Noroeste 17 Noroeste 4.4 921.5 -0.6 81
2020-03-22 13:00:00 9.4 8 Noroeste 18 Nordeste 0.2 921.7 -0.4 79
2020-03-22 12:00:00 9.1 8 Norte 23 Nordeste 0 922.1 0.5 77
2020-03-22 11:00:00 8 13 Nordeste 24 Norte 0 922.1 0.7 84
2020-03-22 10:00:00 7 6 Nordeste 17 Nordeste 0 922.1 0.8 89
2020-03-22 09:00:00 4.9 5 Nordeste 15 Nordeste 0 921.6 0.5 89
2020-03-22 08:00:00 4.3 7 Nordeste 13 Norte 0 921.4 0.5 89
2020-03-22 07:00:00 4.1 4 Norte 12 Nordeste 0 921.3 0.2 88
2020-03-22 06:00:00 4.1 5 Nordeste 9 Norte 0 921.1 -0.7 88
2020-03-22 05:00:00 4.5 4 Norte 6 Norte 0 920.9 -1.4 87
2020-03-22 04:00:00 5.1 4 Nordeste 5 Norte 0 921.1 -1.5 87
2020-03-22 03:00:00 5.5 3 Norte 6 Norte 0 921.8 -1.1 87
2020-03-22 02:00:00 6.2 3 Nordeste 10 Sur 0 922.3 -0.8 87
2020-03-22 01:00:00 6.9 4 Sur 17 Sur 1 922.6 -0.3 87
2020-03-22 00:00:00 7 2 Norte 11 Sur 0.2 922.9 0.1 86
2020-03-21 23:00:00 7 5 Sudoeste 15 Sudoeste 0.2 923.1 0.7 85
2020-03-21 22:00:00 7.2 5 Norte 16 Sudoeste 0.2 922.9 1.2 85
2020-03-21 21:00:00 7.6 7 Sudoeste 23 Sudoeste 1.2 922.8 1.3 83
2020-03-21 20:00:00 8.7 13 Sudoeste 28 Sudoeste 0 922.4 0.7 75
2020-03-21 19:00:00 10.7 5 Sudeste 9 Sudeste 0 921.7 -0.6 61
2020-03-21 18:00:00 11.9 5 Sur 12 Sur 0 921.5 -1.3 55
2020-03-21 17:00:00 13.3 6 Sur 24 Sudoeste 0 921.7 -2.1 54
2020-03-21 16:00:00 12.8 8 Sur 19 Sur 0 922.3 -2 57
2020-03-21 15:00:00 11.7 4 Sudoeste 16 Sur 0 922.8 -1.8 56
2020-03-21 14:00:00 10.1 9 Sur 19 Sur 0 923.8 -0.9 72
2020-03-21 13:00:00 8.8 5 Sudoeste 23 Sur 0 924.3 -0.3 79
2020-03-21 12:00:00 8.3 9 Sur 20 Sur 0 924.6 0.4 82
2020-03-21 11:00:00 8 10 Sur 22 Sudoeste 0 924.7 0.6 85
2020-03-21 10:00:00 7.1 7 Sur 16 Sur 0.2 924.6 0.7 87
2020-03-21 09:00:00 5.8 6 Sudoeste 36 Sudoeste 0.6 924.2 1.3 86
2020-03-21 08:00:00 5.9 16 Sudoeste 41 Sudoeste 0.8 924.1 1.2 85
2020-03-21 07:00:00 7.1 17 Sudoeste 48 Sudoeste 1.2 923.9 1 84
2020-03-21 06:00:00 9.1 10 Sudeste 21 Sudeste 0 922.9 -0.6 75
2020-03-21 05:00:00 8.8 3 Este 8 Nordeste 0 922.9 -1.2 76
2020-03-21 04:00:00 8.6 2 Nordeste 8 Sudeste 0 922.9 -1.6 76
2020-03-21 03:00:00 8.9 0 Calma 10 Sur 0 923.5 -1.5 76
2020-03-21 02:00:00 9 2 Norte 11 Este 0 924.1 -0.8 75
2020-03-21 01:00:00 9.5 4 Sudeste 11 Sudeste 0 924.5 -0.1 73
2020-03-21 00:00:00 10.4 3 Este 22 Sudeste 0 925 0.6 70
2020-03-20 23:00:00 10.8 3 Sudeste 15 Sudeste 0 924.9 0.8 67
2020-03-20 22:00:00 11.6 6 Sudeste 12 Sur 0 924.6 0.6 61
2020-03-20 21:00:00 12.3 5 Este 8 Este 0 924.4 0.1 56
2020-03-20 20:00:00 13 3 Norte 6 Este 0 924.1 -0.7 55
2020-03-20 19:00:00 14.3 2 Nordeste 9 Este 0 924 -1 53
2020-03-20 18:00:00 16.1 6 Sudeste 13 Sudeste 0 924.3 -1.3 47
2020-03-20 17:00:00 16.6 6 Sur 21 Sudeste 0 924.8 -1.4 46
2020-03-20 16:00:00 16.9 8 Sudeste 26 Sudeste 0 925 -1.6 45
2020-03-20 15:00:00 16.8 9 Sur 22 Sudeste 0 925.6 -1.2 45
2020-03-20 14:00:00 14.7 6 Sur 19 Sur 0 926.2 -0.6 52
2020-03-20 13:00:00 13.4 8 Sudeste 19 Sudeste 0 926.6 -0.2 57
2020-03-20 12:00:00 13.2 6 Sudeste 14 Sudeste 0 926.8 0.1 58
2020-03-20 11:00:00 11.3 3 Noroeste 15 Sudeste 0 926.8 0.7 63
2020-03-20 10:00:00 9.2 3 Nordeste 10 Sudeste 0 926.8 0.4 70
2020-03-20 09:00:00 7.2 2 Este 5 Norte 0 926.7 0.6 77
2020-03-20 08:00:00 6.7 3 Norte 7 Norte 0 926.1 -0.1 75
2020-03-20 07:00:00 6.9 3 Noroeste 8 Este 0 926.4 0 75
2020-03-20 06:00:00 6.9 2 Sur 6 Sudeste 0 926.1 -0.5 76
2020-03-20 05:00:00 7.2 2 Oeste 4 Noroeste 0 926.2 -0.8 78
2020-03-20 04:00:00 7.5 3 Norte 6 Noroeste 0 926.4 -0.7 77
2020-03-20 03:00:00 7.9 4 Nordeste 9 Sudeste 0 926.6 -0.8 74
2020-03-20 02:00:00 8.4 4 Sudeste 9 Este 0 927 -0.5 74
2020-03-20 01:00:00 8.9 2 Este 6 Sudeste 0 927.1 -0.4 73
2020-03-20 00:00:00 9.5 3 Este 7 Este 0 927.4 0.1 71
2020-03-19 23:00:00 10.1 4 Este 16 Sudeste 0 927.5 0.5 70
2020-03-19 22:00:00 10.8 6 Sudeste 13 Sudeste 0 927.5 0.8 68
2020-03-19 21:00:00 11.8 6 Sudeste 15 Sudeste 0 927.3 0.6 64
2020-03-19 20:00:00 13.1 7 Sudeste 13 Sudeste 0 927 0 59
2020-03-19 19:00:00 14.9 5 Sudeste 14 Sudeste 0 926.7 -0.8 54
2020-03-19 18:00:00 17 6 Sudeste 17 Sur 0 926.7 -1.2 49
2020-03-19 17:00:00 17.5 5 Este 18 Sudeste 0 927 -1.8 46
2020-03-19 16:00:00 17 6 Sur 17 Sudeste 0 927.5 -2.2 47
2020-03-19 15:00:00 17.2 5 Sudeste 17 Sudeste 0 927.9 -2.3 47
2020-03-19 14:00:00 16.8 7 Sudeste 20 Sudeste 0 928.8 -1.9 46
2020-03-19 13:00:00 15.7 7 Sudeste 17 Sudeste 0 929.7 -1.1 48
2020-03-19 12:00:00 14.3 4 Sudeste 15 Nordeste 0 930.2 -0.4 54
2020-03-19 11:00:00 12.2 4 Sudeste 10 Este 0 930.7 0.3 59
2020-03-19 10:00:00 10 4 Norte 8 Norte 0 930.8 0.3 70
2020-03-19 09:00:00 7.6 3 Norte 7 Norte 0 930.6 0.1 77
2020-03-19 08:00:00 6.7 3 Norte 6 Nordeste 0 930.4 -0.1 75
2020-03-19 07:00:00 6.9 4 Norte 7 Norte 0 930.5 0 73
2020-03-19 06:00:00 7.5 4 Norte 5 Norte 0 930.5 -0.4 70
2020-03-19 05:00:00 7.7 3 Norte 8 Nordeste 0 930.5 -0.7 69
2020-03-19 04:00:00 8 4 Norte 11 Este 0 930.5 -0.8 68
2020-03-19 03:00:00 8.7 6 Este 12 Este 0 930.9 -0.8 67
2020-03-19 02:00:00 9.5 4 Sur 13 Este 0 931.2 -0.9 65
2020-03-19 01:00:00 10.1 4 Este 23 Este 0 931.3 -0.8 64
2020-03-19 00:00:00 10.5 4 Este 21 Este 0 931.7 -0.2 65
2020-03-18 23:00:00 10.8 5 Nordeste 21 Este 0 932.1 0.5 64
2020-03-18 22:00:00 11.5 5 Nordeste 32 Este 0 932.1 0.9 61
2020-03-18 21:00:00 12 6 Nordeste 28 Nordeste 0 931.9 1 59
2020-03-18 20:00:00 12.9 6 Nordeste 25 Nordeste 0 931.6 0.6 57
2020-03-18 19:00:00 14.7 6 Nordeste 28 Este 0 931.2 0.1 51
2020-03-18 18:00:00 16.1 7 Nordeste 24 Este 0 930.9 -0.6 50
2020-03-18 17:00:00 17.9 7 Nordeste 29 Este 0 931 -1.1 44
2020-03-18 16:00:00 18.8 6 Nordeste 25 Este 0 931.1 -1.6 39
2020-03-18 15:00:00 18.9 8 Este 33 Este 0 931.5 -1.8 38
2020-03-18 14:00:00 17.8 7 Nordeste 30 Este 0 932.1 -1.5 41
2020-03-18 13:00:00 17.3 7 Este 32 Este 0 932.7 -0.9 41
2020-03-18 12:00:00 15 7 Nordeste 27 Norte 0 933.3 0.1 49
2020-03-18 11:00:00 14.4 7 Este 29 Este 0 933.6 0.5 49
2020-03-18 10:00:00 12.4 8 Nordeste 26 Nordeste 0 933.6 0.6 53
2020-03-18 09:00:00 10.3 8 Nordeste 26 Nordeste 0 933.2 0.5 60
2020-03-18 08:00:00 9.4 10 Nordeste 25 Norte 0 933.1 0.4 67
2020-03-18 07:00:00 9.3 7 Nordeste 31 Norte 0 933 0.7 70
2020-03-18 06:00:00 9.4 6 Nordeste 18 Nordeste 0 932.7 0.6 70
2020-03-18 05:00:00 9.6 8 Norte 24 Norte 0 932.7 0.1 69
2020-03-18 04:00:00 10.5 11 Nordeste 30 Nordeste 0 932.3 -0.4 64
2020-03-18 03:00:00 10.9 11 Nordeste 31 Nordeste 0 932.1 -1.1 64
2020-03-18 02:00:00 11.2 10 Nordeste 36 Norte 0 932.6 -1.2 64
2020-03-18 01:00:00 11.5 12 Nordeste 39 Nordeste 0 932.7 -0.6 65
2020-03-18 00:00:00 11.8 13 Nordeste 38 Norte 0 933.2 0.2 68
2020-03-17 23:00:00 11.9 6 Nordeste 27 Nordeste 0 933.8 1.5 73
2020-03-17 22:00:00 11.6 11 Nordeste 27 Nordeste 0 933.3 1.3 74
2020-03-17 21:00:00 11.7 9 Norte 28 Nordeste 0 933 1.5 70
2020-03-17 20:00:00 12 8 Nordeste 31 Este 0 932.3 1.3 68
2020-03-17 19:00:00 12.8 8 Nordeste 36 Este 0 932 0.7 64
2020-03-17 18:00:00 13.7 4 Este 13 Este 0 931.5 0.5 57
2020-03-17 17:00:00 15 6 Noroeste 14 Noroeste 0 931 -0.5 37
2020-03-17 16:00:00 14.6 5 Sur 19 Sur 0 931.3 -0.7 40
2020-03-17 15:00:00 14.6 5 Sudeste 22 Sudeste 0 931 -0.8 36
2020-03-17 14:00:00 13.6 4 Este 23 Este 0 931.5 0.1 37
2020-03-17 13:00:00 12.9 8 Este 22 Sudeste 0 932 0.8 38
2020-03-17 12:00:00 12 6 Este 26 Este 0 931.8 1.3 42
2020-03-17 11:00:00 10.5 10 Este 24 Este 0 931.4 1.5 43
2020-03-17 10:00:00 8.6 6 Este 19 Este 0 931.2 2 56
2020-03-17 09:00:00 5.6 6 Nordeste 17 Nordeste 0 930.5 2 69
2020-03-17 08:00:00 3 5 Norte 13 Nordeste 0 929.9 2.1 74
2020-03-17 07:00:00 3.2 6 Nordeste 11 Este 0 929.2 1.7 72
2020-03-17 06:00:00 3.7 4 Este 16 Nordeste 0 928.5 0.8 69
2020-03-17 05:00:00 3.9 4 Nordeste 17 Este 0 927.8 0.3 72
2020-03-17 04:00:00 4.4 4 Este 19 Este 0 927.5 0.1 71
2020-03-17 03:00:00 4.3 5 Este 18 Este 0 927.7 0.4 74
2020-03-17 02:00:00 3.8 7 Nordeste 14 Nordeste 0 927.5 0.4 77
2020-03-17 01:00:00 3.6 4 Nordeste 11 Nordeste 0 927.4 1.1 81
2020-03-17 00:00:00 3.4 3 Nordeste 13 Este 0 927.3 1.4 81
2020-03-16 23:00:00 3.7 5 Este 7 Sudeste 0 927.1 1.9 81
2020-03-16 22:00:00 4.5 3 Sudeste 10 Sudeste 0 926.3 1.8 79
2020-03-16 21:00:00 4.4 3 Sudeste 8 Sur 0 925.9 1.9 78
2020-03-16 20:00:00 5.2 5 Sur 22 Sur 0 925.2 1.2 72
2020-03-16 19:00:00 6.1 7 Sur 21 Sur 0 924.5 0.4 69
2020-03-16 18:00:00 7 7 Sur 23 Sur 0 924 -0.1 65
2020-03-16 17:00:00 7.2 6 Sur 19 Sur 0 924 -0.1 63
2020-03-16 16:00:00 6.3 8 Sur 18 Sur 0 924.1 0 68
2020-03-16 15:00:00 6 8 Oeste 24 Sudoeste 0 924.1 -0.2 65
2020-03-16 14:00:00 6.2 11 Sudoeste 23 Sudoeste 0 924.1 -0.3 64
2020-03-16 13:00:00 6.6 14 Sudoeste 30 Sudoeste 0 924.1 -0.5 63
2020-03-16 12:00:00 6.3 13 Sudoeste 31 Sudoeste 0 924.3 -0.2 65
2020-03-16 11:00:00 5.2 10 Sudoeste 23 Sudoeste 0 924.4 0.6 80
2020-03-16 10:00:00 4.1 10 Sudoeste 27 Sudoeste 0 924.6 1.2 87
2020-03-16 09:00:00 3.6 9 Sudoeste 23 Sudoeste 0 924.5 1.8 88
2020-03-16 08:00:00 3.4 12 Sudoeste 22 Sudoeste 0 923.8 2.2 87
2020-03-16 07:00:00 3.3 10 Sudoeste 31 Oeste 0.6 923.4 1.8 86
2020-03-16 06:00:00 4.4 14 Oeste 33 Oeste 0.6 922.7 0.4 85
2020-03-16 05:00:00 7.6 17 Noroeste 30 Noroeste 0.6 921.6 -1.3 86
2020-03-16 04:00:00 9.9 6 Oeste 17 Oeste 4.2 921.6 -1.7 87
2020-03-16 03:00:00 10.7 10 Sudoeste 36 Sur 3.4 922.3 -1.7 86
2020-03-16 02:00:00 11 13 Sudoeste 32 Sudoeste 0.2 922.9 -1.9 81
2020-03-16 01:00:00 11.8 13 Sudoeste 28 Sudoeste 0 923.3 -1.8 75
2020-03-16 00:00:00 12.4 7 Sur 27 Sudoeste 0 924 -0.9 73
2020-03-15 23:00:00 13 9 Sudoeste 18 Sudoeste 0.4 924.8 0.3 75
2020-03-15 22:00:00 13.7 9 Sudoeste 24 Sudoeste 0 925.1 0.6 65
2020-03-15 21:00:00 13.8 9 Sudoeste 19 Sudoeste 0 924.9 0.1 65
2020-03-15 20:00:00 14.6 8 Sur 21 Sudoeste 0 924.5 -0.6 63
2020-03-15 19:00:00 16.4 11 Sudoeste 29 Sudoeste 0 924.5 -0.6 56
2020-03-15 18:00:00 17.2 14 Sudoeste 34 Sur 0 924.8 -1 50
2020-03-15 17:00:00 18.7 13 Sudoeste 30 Sur 0 925.1 -1.5 46
2020-03-15 16:00:00 19.5 12 Sur 28 Sudoeste 0 925.1 -2.4 47
2020-03-15 15:00:00 19.8 9 Sur 24 Sudoeste 0 925.8 -2.2 51
2020-03-15 14:00:00 18.6 9 Sudoeste 24 Sur 0 926.6 -1.9 56
2020-03-15 13:00:00 18.4 8 Sur 22 Sur 0 927.5 -1.1 58
2020-03-15 12:00:00 16.6 7 Sur 15 Sur 0 928 -0.5 67
2020-03-15 11:00:00 14.9 5 Sur 9 Sur 0 928.5 0.4 74
2020-03-15 10:00:00 12.9 4 Sudeste 7 Sudeste 0 928.6 0.7 80
2020-03-15 09:00:00 11.5 0 Calma 6 Oeste 0 928.5 0.8 84
2020-03-15 08:00:00 10.7 4 Oeste 5 Oeste 0 928.1 0.3 83
2020-03-15 07:00:00 10.5 2 Noroeste 5 Sudeste 0 927.9 0 80
2020-03-15 06:00:00 10.8 2 Este 4 Norte 0 927.7 -0.8 79
2020-03-15 05:00:00 10.9 4 Norte 12 Sudeste 0 927.8 -1.1 77
2020-03-15 04:00:00 11.9 3 Sudeste 9 Sudeste 0 927.9 -1.4 74
2020-03-15 03:00:00 12.3 2 Noroeste 4 Noroeste 0 928.5 -1 70
2020-03-15 02:00:00 12.6 4 Noroeste 5 Noroeste 0 928.9 -0.6 70
2020-03-15 01:00:00 12.8 0 Calma 8 Sudeste 0 929.3 -0.2 66
2020-03-15 00:00:00 13.5 0 Calma 5 Noroeste 0 929.5 0.2 61
2020-03-14 23:00:00 13.9 4 Noroeste 5 Noroeste 0 929.5 0.5 58
2020-03-14 22:00:00 14.4 3 Nordeste 4 Nordeste 0 929.5 0.8 57
2020-03-14 21:00:00 15 3 Oeste 9 Sudoeste 0 929.3 0.6 57
2020-03-14 20:00:00 16.3 5 Sur 12 Sudoeste 0 929 0.3 53
2020-03-14 19:00:00 18.9 5 Sur 15 Sur 0 928.7 -0.3 45
2020-03-14 18:00:00 20.7 6 Sur 19 Sur 0 928.7 -0.9 42
2020-03-14 17:00:00 21 5 Sudoeste 18 Sur 0 928.7 -1.5 36
2020-03-14 16:00:00 20.7 4 Oeste 19 Sur 0 929 -1.9 43
2020-03-14 15:00:00 20.3 7 Sur 18 Sur 0 929.6 -1.7 49
2020-03-14 14:00:00 19.1 8 Sur 19 Sur 0 930.2 -1.5 59
2020-03-14 13:00:00 17.1 4 Sudeste 12 Sudoeste 0 930.9 -0.7 68
2020-03-14 12:00:00 14.8 3 Sur 12 Sur 0 931.3 0.5 78
2020-03-14 11:00:00 12.7 4 Sudoeste 9 Norte 0 931.7 1.3 87
2020-03-14 10:00:00 11.6 3 Norte 8 Sudeste 0 931.6 1.6 88
2020-03-14 09:00:00 11.2 3 Sur 8 Sur 0 930.8 0.9 87
2020-03-14 08:00:00 10.6 3 Sudeste 8 Sudeste 0 930.4 0.8 86
2020-03-14 07:00:00 10.4 5 Sudeste 8 Sudeste 0 930 0.4 83
2020-03-14 06:00:00 10.8 0 Calma 7 Sudeste 0 929.9 0 81
2020-03-14 05:00:00 11.4 2 Sudeste 8 Este 0 929.6 -0.5 79
2020-03-14 04:00:00 11.7 0 Calma 4 Norte 0 929.6 -0.5 76
2020-03-14 03:00:00 12.4 0 Calma 8 Sudeste 0 929.9 -0.2 76
2020-03-14 02:00:00 12.5 3 Noroeste 5 Oeste 0 930.1 0.2 74
2020-03-14 01:00:00 12.7 0 Calma 6 Oeste 0 930.1 0.6 72
2020-03-14 00:00:00 12.9 4 Noroeste 10 Sudoeste 0 930.1 0.9 70
2020-03-13 23:00:00 13.5 5 Sudoeste 9 Sudoeste 0 929.9 1.4 67
2020-03-13 22:00:00 13.9 4 Sudeste 13 Sudoeste 0 929.5 1.6 64
2020-03-13 21:00:00 14.9 8 Sur 15 Sudoeste 0 929.2 1.7 57
2020-03-13 20:00:00 16.4 7 Sudoeste 22 Sur 0 928.5 0.9 51
2020-03-13 19:00:00 19.3 8 Sur 23 Sudoeste 0 927.9 0.2 28
2020-03-13 18:00:00 21.1 13 Sudoeste 27 Sudoeste 0 927.5 -0.4 24
2020-03-13 17:00:00 21.9 11 Oeste 26 Oeste 0 927.6 -1 25
2020-03-13 16:00:00 22.8 10 Sudoeste 26 Sur 0 927.7 -1.5 29
2020-03-13 15:00:00 21.8 11 Sudoeste 24 Sudoeste 0 927.9 -1.6 36
2020-03-13 14:00:00 20.8 9 Sudoeste -- -- 0 928.6 -1.2 42
2020-03-13 13:00:00 19.6 8 Sudoeste 19 Sudoeste 0 929.2 -0.7 41
2020-03-13 12:00:00 17 6 Sudoeste 14 Oeste 0 929.5 -0.1 47
2020-03-13 11:00:00 15.1 3 Sur 8 Sur 0 929.8 0.5 64
2020-03-13 10:00:00 14.4 2 Norte 7 Sudoeste 0 929.9 0.8 67
2020-03-13 09:00:00 12.5 4 Sur 8 Sur 0 929.6 0.5 76
2020-03-13 08:00:00 11.7 5 Sur 6 Sudoeste 0 929.3 0.3 73
2020-03-13 07:00:00 12.1 4 Sur 8 Oeste 0 929.1 -0.2 68
2020-03-13 06:00:00 12.5 3 Oeste 8 Sudoeste 0 929.1 -0.5 67
2020-03-13 05:00:00 12.2 4 Oeste 5 Sudoeste 0 929 -0.8 67
2020-03-13 04:00:00 12.3 2 Norte 7 Sudoeste 0 929.3 -1 64
2020-03-13 03:00:00 13 6 Sur 11 Sur 0 929.6 -0.7 68
2020-03-13 02:00:00 13.5 4 Sudoeste 9 Sur 0 929.8 -0.4 64
2020-03-13 01:00:00 14.2 0 Calma 12 Sur 0 930.3 0.4 57
2020-03-13 00:00:00 15.6 8 Sur 13 Sur 0 930.3 0.6 49
2020-03-12 23:00:00 16.6 9 Sur 13 Sur 0 930.2 0.8 43
2020-03-12 22:00:00 17.6 3 Oeste 9 Sudoeste 0 929.9 0.7 36
2020-03-12 21:00:00 18.6 4 Oeste 10 Sudoeste 0 929.7 0.6 36
2020-03-12 20:00:00 20.2 7 Sudoeste 14 Oeste 0 929.4 0.3 32
2020-03-12 19:00:00 22.5 8 Sudoeste 22 Sudoeste 0 929.2 -0.2 27
2020-03-12 18:00:00 25.1 10 Sudoeste 22 Oeste 0 929.1 -1.1 24
2020-03-12 17:00:00 26 10 Sudoeste 24 Sur 0 929.1 -1.9 25
2020-03-12 16:00:00 25.7 11 Sudoeste 27 Sudoeste 0 929.4 -2.7 23
2020-03-12 15:00:00 25.3 12 Sudoeste 27 Sur 0 930.2 -2.1 23
2020-03-12 14:00:00 24.6 8 Sudoeste 23 Sudoeste 0 931 -1.4 27
2020-03-12 13:00:00 23.9 8 Sur 21 Sur 0 932.1 -0.1 30
2020-03-12 12:00:00 22.5 5 Sur 16 Sur 0 932.3 0.5 30
2020-03-12 11:00:00 20.7 5 Sur 11 Sur 0 932.4 0.8 36
2020-03-12 10:00:00 18.7 3 Sudeste 6 Noroeste 0 932.2 0.6 41
2020-03-12 09:00:00 16.5 4 Norte 7 Noroeste 0 931.8 0.2 41
2020-03-12 08:00:00 15.6 4 Norte 7 Norte 0 931.6 -0.2 43
2020-03-12 07:00:00 15.6 4 Norte 5 Noroeste 0 931.6 -0.8 45
2020-03-12 06:00:00 15.5 4 Noroeste 6 Noroeste 0 931.6 -1.5 46
2020-03-12 05:00:00 15.2 4 Norte 7 Noroeste 0 931.8 -1.9 46
2020-03-12 04:00:00 14.8 5 Norte 6 Norte 0 932.4 -1.3 47
2020-03-12 03:00:00 15.4 5 Noroeste 8 Norte 0 933.1 -1.1 45
2020-03-12 02:00:00 14.9 5 Norte 15 Sudeste 0 933.7 -0.2 45
2020-03-12 01:00:00 16.5 4 Nordeste 7 Norte 0 933.7 -0.1 39
2020-03-12 00:00:00 17 5 Norte 13 Sur 0 934.2 0.9 38
2020-03-11 23:00:00 18.3 6 Sudeste 10 Sudeste 0 933.9 0.8 34
2020-03-11 22:00:00 19.3 4 Norte 13 Este 0 933.8 0.7 32
2020-03-11 21:00:00 21 5 Noroeste 13 Noroeste 0 933.3 0.1 26
2020-03-11 20:00:00 22.5 3 Noroeste 9 Oeste 0 933.1 -0.2 23
2020-03-11 19:00:00 23.7 6 Oeste 9 Oeste 0 933.1 -0.4 24
2020-03-11 18:00:00 26.4 3 Sur 11 Sudeste 0 933.2 -0.8 24
2020-03-11 17:00:00 27.4 5 Sur 12 Sudeste 0 933.3 -1.5 19
2020-03-11 16:00:00 27.2 5 Sudeste 14 Sudeste 0 933.5 -2 18
2020-03-11 15:00:00 26.7 6 Sudeste 17 Sur 0 934 -2 19
2020-03-11 14:00:00 25.3 6 Sudeste 16 Sudeste 0 934.8 -1.4 24
2020-03-11 13:00:00 23.8 7 Sudeste 14 Este 0 935.5 -0.7 26
2020-03-11 12:00:00 22.1 3 Este 11 Sur 0 936 0.1 33
2020-03-11 11:00:00 19 4 Norte 8 Nordeste 0 936.2 0.6 44
2020-03-11 10:00:00 16.8 3 Norte 8 Este 0 936.2 0.8 45
2020-03-11 09:00:00 13.9 2 Norte 6 Norte 0 935.9 0.3 50
2020-03-11 08:00:00 12.9 4 Norte 9 Nordeste 0 935.6 0 51
2020-03-11 07:00:00 13.3 4 Norte 12 Nordeste 0 935.4 -0.3 52
2020-03-11 06:00:00 13.5 8 Nordeste 13 Nordeste 0 935.6 -0.7 52
2020-03-11 05:00:00 14.1 7 Nordeste 19 Nordeste 0 935.6 -0.8 49
2020-03-11 04:00:00 13.7 9 Nordeste 17 Nordeste 0 935.7 -1.1 49
2020-03-11 03:00:00 14.1 6 Norte 8 Norte 0 936.3 -0.7 49
2020-03-11 02:00:00 14.2 3 Nordeste 9 Nordeste 0 936.4 -0.7 48
2020-03-11 01:00:00 14.7 4 Nordeste 11 Nordeste 0 936.8 -0.4 48
2020-03-11 00:00:00 15 5 Norte 8 Norte 0 937 -0.1 47
2020-03-10 23:00:00 15.7 4 Noroeste 8 Noroeste 0 937.1 0 45
2020-03-10 22:00:00 16.1 3 Noroeste 7 Sudoeste 0 937.2 0.4 46
2020-03-10 21:00:00 16.9 3 Norte 10 Sudoeste 0 937.1 0.7 44
2020-03-10 20:00:00 18.1 6 Sudoeste 12 Sudoeste 0 937.1 0.7 41
2020-03-10 19:00:00 20.6 4 Sur 17 Nordeste 0 936.8 0.3 35
2020-03-10 18:00:00 21.4 9 Norte 19 Nordeste 0 936.4 -0.4 28
2020-03-10 17:00:00 22.6 6 Noroeste 23 Noroeste 0 936.4 -0.8 28
2020-03-10 16:00:00 21.3 15 Norte 25 Norte 0 936.5 -1.4 27
2020-03-10 15:00:00 20.6 7 Nordeste 29 Norte 0 936.8 -1.2 30
2020-03-10 14:00:00 20.1 8 Nordeste 28 Norte 0 937.2 -0.7 31
2020-03-10 13:00:00 18.6 17 Norte 33 Norte 0 937.9 0.1 31
2020-03-10 12:00:00 17.1 16 Nordeste 35 Nordeste 0 938 0.7 35
2020-03-10 11:00:00 14.8 18 Norte 34 Norte 0 937.9 0.8 38
2020-03-10 10:00:00 11.8 8 Nordeste 26 Nordeste 0 937.8 0.8 44
2020-03-10 09:00:00 10.2 15 Nordeste 26 Nordeste 0 937.3 0.4 45
2020-03-10 08:00:00 6.9 15 Nordeste 22 Norte 0 937.1 0.6 58
2020-03-10 07:00:00 7 4 Nordeste 12 Este 0 937 0.7 58
2020-03-10 06:00:00 7.7 2 Oeste 21 Nordeste 0 936.9 0.2 54
2020-03-10 05:00:00 8.8 11 Nordeste 23 Nordeste 0 936.5 -0.5 49
2020-03-10 04:00:00 8 17 Norte 22 Norte 0 936.3 -1 54
2020-03-10 03:00:00 8.5 14 Norte 24 Norte 0 936.7 -0.6 54
2020-03-10 02:00:00 10.1 10 Norte 17 Nordeste 0 937 0 45
2020-03-10 01:00:00 10.5 4 Nordeste 11 Norte 0 937.3 0.9 46
2020-03-10 00:00:00 11.1 5 Norte 15 Noroeste 0 937.3 1.8 48
2020-03-09 23:00:00 11.6 6 Nordeste 13 Nordeste 0 937 1.6 44
2020-03-09 22:00:00 12.7 7 Norte 16 Norte 0 936.4 1.3 40
2020-03-09 21:00:00 13.2 6 Noroeste 12 Noroeste 0 935.5 0.4 37
2020-03-09 20:00:00 13.8 5 Noroeste 13 Norte 0 935.4 0.5 40
2020-03-09 19:00:00 15.7 9 Norte 22 Norte 0 935.1 -0.1 37
2020-03-09 18:00:00 17.4 5 Noroeste 14 Sur 0 935.1 -0.7 42
2020-03-09 17:00:00 18.6 7 Sudoeste 21 Sur 0 934.9 -1.5 40
2020-03-09 16:00:00 18.4 10 Sur 20 Sur 0 935.2 -1.7 44
2020-03-09 15:00:00 17.5 9 Sur 21 Sur 0 935.8 -1.4 44
2020-03-09 14:00:00 15.9 6 Sudoeste 16 Sur 0 936.4 -0.9 51
2020-03-09 13:00:00 15.2 5 Sudeste 14 Sur 0 936.9 0 52
2020-03-09 12:00:00 13.5 4 Sur 14 Sudeste 0 937.2 0.6 55
2020-03-09 11:00:00 12.1 6 Sudeste 16 Sudeste 0 937.3 1.3 59
2020-03-09 10:00:00 10.3 5 Este 14 Este 0 936.9 0.8 66
2020-03-09 09:00:00 7.4 5 Nordeste 7 Nordeste 0 936.6 1 76
2020-03-09 08:00:00 6.5 5 Nordeste 13 Este 0 936 0.6 76
2020-03-09 07:00:00 6.9 4 Nordeste 13 Nordeste 0 936.1 0.8 72
2020-03-09 06:00:00 7.4 4 Nordeste 11 Este 0 935.6 -0.4 63
2020-03-09 05:00:00 8.1 6 Norte 11 Sudeste 0 935.4 -0.7 60
2020-03-09 04:00:00 8.7 6 Este 12 Este 0 935.3 -0.6 53
2020-03-09 03:00:00 8.9 2 Sur 11 Sudeste 0 936 0 54
2020-03-09 02:00:00 10 6 Sudeste 15 Sudoeste 0 936.1 0.2 52
2020-03-09 01:00:00 10.3 4 Oeste 10 Sudoeste 0 935.9 -0.1 46
2020-03-09 00:00:00 11.2 8 Oeste 14 Oeste 0 936 0.2 42